Latest Coastal Weather Observations for Strahan

IDT60701

Issued at 5:23 pm EDT Friday 3 December 2021 (issued every 10 minutes, with the page automatically refreshed every 10 minutes)

About coastal observations | Map of coastal stations | Coastal observations for TAS | Marine services | Other Formats
Station Details ID: 097072 Name: STRAHAN AERODROME Lat: -42.16 Lon: 145.29 Height: 21.0 m
Data from the previous 72 hours. | See also: Recent months at Strahan
Date/Time
EDT
Wind Sea
Height
m
Swell Vis
km
Cloud Weather Temp
°C
Press
MSL
hPa
Rain since
9am
mm
Dir  Spd
kts
Gust
kts
Height
m
Period
s
Dir
03/05:00pm NW 13 17 - - - - 10 Partly cloudy - 14.3 1017.1 0.0
03/04:30pm NW 13 18 - - - - 10 Partly cloudy - 15.9 1017.4 0.0
03/04:00pm NW 13 18 - - - - 10 Partly cloudy - 15.6 1017.4 0.0
03/03:30pm WNW 12 18 - - - - 10 - - 16.2 1017.5 0.0
03/03:00pm WNW 10 14 - - - - 10 - - 16.3 1017.7 0.0
03/02:30pm WNW 12 16 - - - - 10 - - 16.4 1017.9 0.0
03/02:00pm WNW 12 18 - - - - 10 - - 16.5 1018.1 0.0
03/01:30pm W 12 16 - - - - 10 - - 16.1 1018.2 0.0
03/01:00pm W 12 16 - - - - 10 - - 16.0 1018.4 0.0
03/12:30pm W 11 16 - - - - 10 - - 15.6 1018.5 0.0
03/12:00pm W 11 15 - - - - 10 - - 15.7 1018.5 0.0
03/11:30am W 9 13 - - - - 10 - - 15.1 1018.7 0.0
03/11:00am W 9 14 - - - - 10 - - 15.2 1018.7 0.0
03/10:30am WSW 9 13 - - - - 10 Partly cloudy - 14.9 1018.7 0.0
03/10:00am WSW 10 15 - - - - 10 Partly cloudy - 13.3 1018.7 0.0
03/09:30am W 8 13 - - - - 10 - - 14.8 1018.6 0.0
03/09:00am SW 7 10 - - - - 10 Mostly clear - 14.0 1018.4 4.2
03/08:30am SW 8 11 - - - - 10 Partly cloudy - 13.7 1018.3 4.2
03/08:00am SW 8 11 - - - - 10 Partly cloudy - 13.2 1018.1 4.2
03/07:30am SW 4 7 - - - - 10 Partly cloudy - 11.6 1017.9 4.2
03/07:00am CALM 0 0 - - - - 10 Partly cloudy - 10.7 1017.5 4.2
03/06:30am CALM 0 0 - - - - 10 Partly cloudy - 9.6 1017.3 4.2
03/06:00am SW 2 4 - - - - 10 Mostly clear - 9.1 1017.0 4.2
03/05:30am SW 4 4 - - - - 10 Partly cloudy - 9.7 1016.6 4.2
03/05:00am SW 4 6 - - - - 10 Partly cloudy - 9.7 1016.3 4.2
03/04:30am SW 5 6 - - - - 10 Partly cloudy - 9.9 1016.0 4.2
03/04:00am SW 5 6 - - - - 10 Partly cloudy - 10.0 1015.9 4.2
03/03:30am SW 4 6 - - - - 10 Partly cloudy - 10.3 1015.7 4.2
03/03:00am SW 6 8 - - - - 10 Cloudy - 10.5 1015.6 4.2
03/02:30am WSW 1 3 - - - - 10 Partly cloudy - 11.3 1015.7 4.2
03/02:13am WSW 4 5 - - - - 10 Partly cloudy - 11.1 1015.7 4.2
03/02:00am WSW 7 10 - - - - 4 Partly cloudy - 11.1 1015.7 4.2
03/01:48am WSW 10 14 - - - - 5 Partly cloudy - 11.2 1015.9 3.8
03/01:30am NNW 6 13 - - - - 10 Partly cloudy - 11.1 1015.9 3.2
03/01:00am NNE 5 7 - - - - 10 Partly cloudy - 11.0 1015.8 3.2
03/12:30am NNE 3 7 - - - - 10 Cloudy - 11.1 1016.0 3.2
03/12:00am N 5 6 - - - - 10 Cloudy Rain 11.3 1016.2 3.0
 
Date/Time
EDT
Wind Sea
Height
m
Swell Vis
km
Cloud Weather Temp
°C
Press
MSL
hPa
Rain since
9am
mm
Dir  Spd
kts
Gust
kts
Height
m
Period
s
Dir
02/11:30pm NW 4 8 - - - - 10 Partly cloudy - 11.9 1016.2 3.0
02/11:00pm NNW 4 5 - - - - 10 Cloudy - 11.9 1016.0 3.0
02/10:30pm WNW 6 9 - - - - 10 Cloudy - 12.4 1015.8 3.0
02/10:00pm WNW 7 10 - - - - 10 Cloudy - 12.3 1015.6 3.0
02/09:30pm WNW 9 11 - - - - 10 Partly cloudy - 12.3 1014.9 3.0
02/09:00pm WNW 7 11 - - - - 10 Cloudy - 12.3 1014.5 3.0
02/08:30pm W 9 13 - - - - 10 Cloudy - 12.0 1013.9 3.0
02/08:08pm W 8 12 - - - - 10 Cloudy - 12.1 1013.6 3.0
02/08:00pm W 9 12 - - - - 10 Cloudy - 12.1 1013.4 3.0
02/07:30pm WSW 8 9 - - - - 9 Cloudy - 12.4 1012.9 3.0
02/07:27pm WSW 7 9 - - - - 7 Cloudy - 12.4 1012.8 3.0
02/07:00pm WSW 7 9 - - - - 4 Cloudy - 12.5 1012.8 3.0
02/06:30pm WSW 5 8 - - - - 3 Cloudy - 13.0 1012.0 2.2
02/06:00pm WNW 3 6 - - - - 5 Cloudy Showers 13.5 1012.1 2.0
02/05:59pm WNW 3 6 - - - - 5 Partly cloudy - 13.5 1012.1 2.0
02/05:30pm W 5 7 - - - - 10 Partly cloudy - 13.7 1011.7 1.2
02/05:20pm WSW 4 6 - - - - 10 Cloudy - 13.7 1012.0 1.2
02/05:10pm SW 5 7 - - - - 10 Cloudy - 13.7 1011.2 1.2
02/05:00pm SW 5 7 - - - - 10 Cloudy - 13.9 1011.9 0.4
02/04:58pm SW 4 7 - - - - 10 Cloudy - 13.8 1011.7 0.4
02/04:31pm WSW 7 10 - - - - 10 Cloudy - 14.2 1011.9 0.4
02/04:30pm WSW 7 10 - - - - 10 Cloudy - 14.1 1011.9 0.4
02/04:17pm WSW 7 10 - - - - 10 Cloudy - 14.1 1011.8 0.4
02/04:07pm W 7 9 - - - - 10 Cloudy - 13.9 1011.7 0.4
02/04:00pm W 7 11 - - - - 10 Cloudy - 14.0 1012.0 0.0
02/03:30pm WSW 9 11 - - - - 10 Cloudy - 14.9 1011.6 0.0
02/03:00pm WSW 10 14 - - - - 10 Cloudy - 16.0 1011.9 0.0
02/02:30pm W 10 14 - - - - 10 Cloudy - 16.3 1012.4 0.0
02/02:00pm WSW 9 13 - - - - 10 Partly cloudy - 16.9 1012.4 0.0
02/01:30pm W 10 13 - - - - 10 Cloudy - 17.2 1012.7 0.0
02/01:00pm W 10 13 - - - - 10 Cloudy - 17.4 1012.9 0.0
02/12:30pm W 9 13 - - - - 10 Cloudy - 17.1 1012.9 0.0
02/12:00pm WSW 10 13 - - - - 10 Cloudy - 16.7 1013.0 0.0
02/11:30am WNW 9 14 - - - - 10 Partly cloudy - 17.7 1013.1 0.0
02/11:00am WNW 9 13 - - - - 10 Partly cloudy - 18.0 1013.0 0.0
02/10:57am WNW 8 13 - - - - 10 Partly cloudy - 17.8 1013.1 0.0
02/10:30am WNW 7 10 - - - - 10 Partly cloudy - 18.0 1013.1 0.0
02/10:00am WNW 9 11 - - - - 10 - - 17.0 1012.9 0.0
02/09:30am NW 7 9 - - - - 10 - - 16.7 1012.9 0.0
02/09:06am WNW 6 8 - - - - 10 - - 17.0 1012.7 0.0
02/09:00am WNW 6 8 - - - - 10 - - 16.4 1012.7 0.0
02/08:52am W 5 7 - - - - 5 - - 16.7 1012.7 0.0
02/08:42am W 1 4 - - - - 10 Partly cloudy - 16.1 1012.6 0.0
02/08:30am W 2 5 - - - - 10 Partly cloudy - 15.6 1012.6 0.0
02/08:00am NNE 2 4 - - - - 10 Cloudy - 14.1 1012.4 0.0
02/07:30am NE 5 6 - - - - 10 Cloudy - 13.5 1012.4 0.0
02/07:02am NNE 4 6 - - - - 10 Partly cloudy - 12.2 1012.6 0.0
02/07:00am NNE 4 6 - - - - 10 Partly cloudy - 12.2 1012.6 0.0
02/06:30am NNE 4 6 - - - - 10 Partly cloudy - 11.1 1012.5 0.0
02/06:26am N 3 5 - - - - 10 Partly cloudy - 11.4 1012.5 0.0
02/06:05am NW 3 4 - - - - 9 Partly cloudy - 11.0 1012.6 0.0
02/06:00am NW 4 4 - - - - 8 Mostly cloudy - 11.0 1012.5 0.0
02/05:49am NNW 3 4 - - - - 5 Cloudy - 10.6 1012.4 0.0
02/05:30am NNE 3 4 - - - - 10 Partly cloudy - 9.6 1012.1 0.0
02/05:00am NNE 2 4 - - - - 10 - - 10.5 1011.8 0.0
02/04:30am NNE 2 4 - - - - 10 - - 10.8 1011.5 0.0
02/04:00am CALM 0 0 - - - - 10 - - 10.6 1011.7 0.0
02/03:30am CALM 0 0 - - - - 10 - - 11.1 1012.2 0.0
02/03:00am NNE 4 4 - - - - 10 - - 11.5 1012.6 0.0
02/02:30am N 4 6 - - - - 10 - - 11.7 1013.3 0.0
02/02:00am N 4 5 - - - - 10 Partly cloudy - 12.3 1013.5 0.0
02/01:42am N 1 3 - - - - 10 Cloudy - 12.6 1013.7 0.0
02/01:30am N 3 5 - - - - 10 Cloudy - 12.8 1013.8 0.0
02/01:00am NW 3 4 - - - - 10 Cloudy - 13.0 1013.8 0.0
02/12:40am CALM 0 1 - - - - 7 Cloudy - 13.1 1013.7 0.0
02/12:30am WNW 2 4 - - - - 10 Cloudy - 12.8 1013.8 0.0
02/12:00am NNW 3 4 - - - - 10 Cloudy - 12.1 1013.8 0.0
 
Date/Time
EDT
Wind Sea
Height
m
Swell Vis
km
Cloud Weather Temp
°C
Press
MSL
hPa
Rain since
9am
mm
Dir  Spd
kts
Gust
kts
Height
m
Period
s
Dir
01/11:30pm CALM 0 0 - - - - 10 Partly cloudy - 13.0 1013.7 0.0
01/11:00pm CALM 0 0 - - - - 10 Partly cloudy - 13.1 1013.9 0.0
01/10:30pm SW 4 4 - - - - 10 Cloudy - 13.5 1014.2 0.0
01/10:00pm SSW 1 3 - - - - 10 Partly cloudy - 13.8 1014.2 0.0
01/09:30pm SW 4 5 - - - - 10 - - 13.7 1014.0 0.0
01/09:00pm SW 4 5 - - - - 10 - - 14.3 1013.9 0.0
01/08:30pm SW 4 5 - - - - 10 - - 15.6 1013.8 0.0
01/08:00pm SW 6 7 - - - - 10 Partly cloudy - 17.1 1013.5 0.0
01/07:30pm SSW 6 8 - - - - 10 Cloudy - 18.2 1013.4 0.0
01/07:00pm SSW 7 10 - - - - 10 Partly cloudy - 18.6 1013.5 0.0
01/06:30pm SW 6 9 - - - - 10 Cloudy - 17.9 1013.4 0.0
01/06:00pm SW 7 11 - - - - 10 Mostly cloudy - 18.7 1013.0 0.0
01/05:30pm WSW 7 11 - - - - 10 Partly cloudy - 19.3 1013.0 0.0
01/05:00pm WSW 8 11 - - - - 10 Partly cloudy - 19.9 1013.0 0.0
01/04:58pm WSW 7 11 - - - - 10 Partly cloudy - 19.8 1013.0 0.0
01/04:30pm SW 7 11 - - - - 10 Partly cloudy - 19.2 1013.1 0.0
01/04:00pm WSW 9 12 - - - - 10 Partly cloudy - 19.0 1013.2 0.0
01/03:30pm SW 9 13 - - - - 10 Partly cloudy - 19.1 1013.1 0.0
01/03:29pm SW 9 13 - - - - 10 Partly cloudy - 19.4 1013.1 0.0
01/03:00pm WSW 10 16 - - - - 10 Mostly clear - 20.0 1012.9 0.0
01/02:30pm WSW 8 11 - - - - 10 - - 20.7 1012.9 0.0
01/02:00pm SW 4 6 - - - - 10 Cloudy - 18.8 1012.8 0.0
01/01:30pm W 7 9 - - - - 10 Partly cloudy - 17.8 1013.0 0.0
01/01:00pm WSW 8 11 - - - - 10 Partly cloudy - 18.7 1012.8 0.0
01/12:30pm WSW 4 8 - - - - 10 Partly cloudy - 19.9 1012.5 0.0
01/12:00pm W 13 17 - - - - 10 Mostly cloudy - 19.8 1012.2 0.0
01/11:30am WSW 16 22 - - - - 10 Partly cloudy - 19.4 1011.8 0.0
01/11:24am WSW 16 22 - - - - 10 Partly cloudy - 20.4 1011.8 0.0
01/11:00am N 11 16 - - - - 10 Partly cloudy - 25.5 1010.7 0.0
01/10:30am NNE 13 19 - - - - 10 Partly cloudy - 25.1 1010.1 0.0
01/10:00am N 14 20 - - - - 10 - - 23.0 1010.0 0.0
01/09:30am NNE 15 24 - - - - 10 - - 22.8 1009.7 0.0
01/09:00am NNE 14 21 - - - - 10 Cloudy - 22.3 1009.6 0.0
01/08:30am NNE 13 18 - - - - 10 - - 21.6 1009.4 0.0
01/08:00am NNE 14 20 - - - - 10 - - 21.1 1009.3 0.0
01/07:30am NNE 16 24 - - - - 10 - - 21.9 1009.0 0.0
01/07:00am NNE 14 21 - - - - 10 - - 20.2 1008.9 0.0
01/06:30am NNE 15 22 - - - - 10 - - 19.2 1008.9 0.0
01/06:00am NNE 15 24 - - - - 10 Mostly clear - 18.7 1009.0 0.0
01/05:00am NNE 15 23 - - - - 10 - - 18.6 1008.9 0.0
01/04:30am NNE 15 25 - - - - 10 - - 18.3 1008.9 0.0
01/04:23am NNE 15 25 - - - - 10 - - 18.2 1008.9 0.0
01/04:00am NNE 15 22 - - - - 10 - - 17.9 1009.0 0.0
01/03:30am NNE 15 24 - - - - 10 - - 18.0 1009.3 0.0
01/03:00am NNE 15 23 - - - - 10 Mostly cloudy - 17.7 1009.6 0.0
01/02:46am NNE 15 27 - - - - 10 - - 17.7 1009.7 0.0
01/02:30am NNE 14 22 - - - - 10 - - 17.5 1009.8 0.0
01/02:00am NNE 13 20 - - - - 10 - - 17.2 1010.0 0.0
01/01:30am NNE 13 20 - - - - 10 - - 17.2 1010.2 0.0
01/01:00am NNE 10 14 - - - - 10 - - 16.7 1010.4 0.0
01/12:30am NNE 9 13 - - - - 10 - - 16.3 1010.6 0.0
01/12:00am NNE 8 11 - - - - 10 Mostly clear - 16.0 1010.8 0.0
 
Date/Time
EDT
Wind Sea
Height
m
Swell Vis
km
Cloud Weather Temp
°C
Press
MSL
hPa
Rain since
9am
mm
Dir  Spd
kts
Gust
kts
Height
m
Period
s
Dir
30/11:30pm NNE 9 12 - - - - 10 - - 15.8 1011.2 0.0
30/11:00pm NNE 8 11 - - - - 10 - - 16.0 1011.5 0.0
30/10:30pm NNE 8 11 - - - - 10 - - 16.7 1011.9 0.0
30/10:00pm NE 6 7 - - - - 10 - - 15.5 1012.4 0.0
30/09:30pm NNE 5 6 - - - - 10 - - 16.2 1012.5 0.0
30/09:00pm CALM 0 0 - - - - 10 - - 16.2 1012.3 0.0
30/08:30pm NNE 4 5 - - - - 10 - - 17.6 1012.0 0.0
30/08:00pm CALM 0 0 - - - - 10 - - 18.7 1012.0 0.0
30/07:30pm CALM 0 0 - - - - 10 - - 18.9 1011.9 0.0
30/07:00pm SW 5 7 - - - - 10 - - 18.5 1011.6 0.0
30/06:30pm W 5 8 - - - - 10 - - 20.3 1011.3 0.0
30/06:00pm WNW 6 11 - - - - 10 - - 20.4 1011.2 0.0
30/05:30pm W 7 10 - - - - 10 - - 21.2 1011.2 0.0

Other formats

Comma delimited format used in spreadsheet applications
http://www.bom.gov.au/fwo/IDT60701/IDT60701.94956.axf

JavaScript Object Notation format (JSON) in row-major order
http://www.bom.gov.au/fwo/IDT60701/IDT60701.94956.json

Data quality

Most of these data are generated automatically and are frequently updated. Quality checks on data are not normally performed. It is possible for incorrect values to appear. Refer to information at About Latest Weather Observations and please check the disclaimer before using these data.